createdAt,value
2024-02-07T00:00:36.965Z,89.24
2024-02-07T00:03:05.585Z,88.63
2024-02-07T00:05:33.821Z,89.37
2024-02-07T00:08:02.583Z,88.47
2024-02-07T00:10:32.127Z,89.17
2024-02-07T00:13:00.165Z,88.86
2024-02-07T00:15:28.821Z,89.41
2024-02-07T00:17:58.068Z,89.18
2024-02-07T00:20:26.188Z,88.95
2024-02-07T00:22:54.345Z,88.81
2024-02-07T00:25:22.427Z,89.01
2024-02-07T00:27:52.026Z,88.77
2024-02-07T00:30:28.319Z,89.60
2024-02-07T00:33:03.407Z,89.18
2024-02-07T00:35:31.558Z,88.78
2024-02-07T00:37:59.730Z,89.28
2024-02-07T00:40:28.379Z,89.04
2024-02-07T00:42:58.856Z,89.15
2024-02-07T00:45:27.164Z,88.93
2024-02-07T00:47:55.274Z,89.62
2024-02-07T00:50:23.489Z,89.70
2024-02-07T00:52:51.764Z,89.13
2024-02-07T00:55:19.885Z,89.15
2024-02-07T00:57:50.193Z,88.83
2024-02-07T01:00:20.745Z,89.55
2024-02-07T01:02:48.789Z,88.97
2024-02-07T01:05:16.878Z,89.45
2024-02-07T01:07:45.031Z,89.66
2024-02-07T01:10:13.129Z,89.84
2024-02-07T01:12:41.545Z,90.18
2024-02-07T01:15:09.669Z,89.23
2024-02-07T01:17:40.228Z,89.69
2024-02-07T01:20:12.004Z,90.08
2024-02-07T01:22:40.451Z,89.79
2024-02-07T01:25:08.984Z,89.53
2024-02-07T01:27:37.586Z,89.43
2024-02-07T01:30:08.392Z,89.84
2024-02-07T01:32:36.514Z,89.50
2024-02-07T01:35:08.264Z,89.20
2024-02-07T01:37:36.433Z,89.29
2024-02-07T01:40:04.871Z,89.37
2024-02-07T01:42:33.827Z,89.62
2024-02-07T01:45:23.757Z,89.43
2024-02-07T01:47:52.783Z,89.52
2024-02-07T01:50:23.466Z,89.14
2024-02-07T01:52:53.956Z,89.52
2024-02-07T01:55:23.203Z,89.48
2024-02-07T01:57:51.291Z,89.73
2024-02-07T02:00:19.577Z,89.45
2024-02-07T02:02:49.861Z,89.80
2024-02-07T02:05:18.005Z,89.90
2024-02-07T02:07:48.476Z,89.39
2024-02-07T02:10:16.985Z,89.94
2024-02-07T02:12:45.666Z,89.51
2024-02-07T02:15:14.242Z,89.55
2024-02-07T02:17:42.911Z,89.28
2024-02-07T02:20:11.784Z,88.90
2024-02-07T02:23:13.080Z,89.07
2024-02-07T02:26:14.046Z,88.70
2024-02-07T02:28:55.765Z,88.52
2024-02-07T02:31:26.427Z,88.63
2024-02-07T02:33:57.738Z,89.02
2024-02-07T02:36:25.892Z,89.35
2024-02-07T02:38:54.271Z,89.59
2024-02-07T02:41:23.862Z,89.13
2024-02-07T02:43:52.078Z,88.66
2024-02-07T02:46:21.430Z,88.97
2024-02-07T02:48:51.091Z,88.89
2024-02-07T02:51:19.522Z,89.01
2024-02-07T02:53:47.533Z,89.20
2024-02-07T02:56:16.473Z,88.98
2024-02-07T02:58:46.103Z,88.95
2024-02-07T03:01:15.160Z,88.87
2024-02-07T03:03:54.615Z,88.92
2024-02-07T03:06:31.289Z,89.28
2024-02-07T03:09:09.558Z,89.60
2024-02-07T03:11:38.212Z,89.47
2024-02-07T03:14:07.509Z,89.61
2024-02-07T03:16:37.401Z,89.38
2024-02-07T03:19:05.745Z,88.82
2024-02-07T03:21:35.305Z,89.08
2024-02-07T03:24:03.347Z,89.30
2024-02-07T03:26:31.408Z,88.27
2024-02-07T03:29:00.425Z,88.34
2024-02-07T03:31:29.875Z,88.00
2024-02-07T03:33:58.003Z,87.58
2024-02-07T03:36:28.021Z,87.33
2024-02-07T03:39:00.036Z,87.29
2024-02-07T03:41:28.131Z,86.92
2024-02-07T03:43:56.243Z,87.22
2024-02-07T03:46:25.263Z,87.48
2024-02-07T03:48:54.037Z,87.58
2024-02-07T03:51:28.795Z,87.12
2024-02-07T03:54:00.427Z,87.51
2024-02-07T03:56:30.213Z,87.79
2024-02-07T03:58:59.639Z,87.35
2024-02-07T04:01:28.992Z,88.29
2024-02-07T04:03:58.749Z,87.87
2024-02-07T04:06:27.377Z,88.53
2024-02-07T04:08:57.143Z,88.52
2024-02-07T04:11:25.662Z,88.11
2024-02-07T04:13:52.545Z,87.95
2024-02-07T04:16:37.978Z,88.50
2024-02-07T04:19:23.400Z,88.78
2024-02-07T04:22:09.282Z,87.77
2024-02-07T04:24:54.685Z,87.91
2024-02-07T04:27:41.694Z,87.75
2024-02-07T04:30:27.970Z,87.76
2024-02-07T04:33:13.458Z,87.86
2024-02-07T04:35:59.249Z,88.36
2024-02-07T04:38:44.701Z,87.83
2024-02-07T04:41:30.106Z,88.61
2024-02-07T04:44:17.161Z,87.24
2024-02-07T04:47:02.607Z,87.46
2024-02-07T04:49:47.918Z,87.89
2024-02-07T04:52:33.265Z,87.63
2024-02-07T04:55:18.667Z,86.93
2024-02-07T04:58:04.432Z,86.53
2024-02-07T05:00:51.192Z,88.32
2024-02-07T05:03:36.764Z,87.99
2024-02-07T05:06:22.757Z,88.04
2024-02-07T05:09:08.121Z,87.71
2024-02-07T05:11:53.533Z,87.94
2024-02-07T05:14:38.951Z,88.00
2024-02-07T05:17:08.379Z,87.53
2024-02-07T05:19:37.532Z,87.50
2024-02-07T05:22:05.994Z,86.61
2024-02-07T05:24:34.385Z,87.43
2024-02-07T05:27:03.585Z,87.70
2024-02-07T05:29:32.618Z,88.08
2024-02-07T05:32:00.801Z,87.88
2024-02-07T05:34:30.490Z,88.47
2024-02-07T05:36:59.355Z,87.93
2024-02-07T05:39:27.464Z,88.32
2024-02-07T05:41:55.677Z,89.19
2024-02-07T05:44:23.735Z,88.33
2024-02-07T05:46:51.771Z,87.87
2024-02-07T05:49:19.990Z,87.64
2024-02-07T05:52:01.654Z,87.72
2024-02-07T05:54:31.000Z,88.77
2024-02-07T05:56:59.167Z,88.69
2024-02-07T05:59:27.393Z,87.67
2024-02-07T06:01:55.515Z,87.42
2024-02-07T06:04:23.694Z,88.66
2024-02-07T06:06:53.351Z,86.88
2024-02-07T06:09:21.488Z,86.67
2024-02-07T06:11:50.525Z,87.45
2024-02-07T06:14:18.593Z,86.70
2024-02-07T06:16:46.750Z,87.63
2024-02-07T06:19:15.029Z,86.77
2024-02-07T06:21:43.122Z,86.66
2024-02-07T06:24:12.684Z,87.19
2024-02-07T06:26:40.753Z,87.47
2024-02-07T06:29:08.759Z,86.16
2024-02-07T06:31:37.541Z,85.04
2024-02-07T06:34:05.798Z,86.63
2024-02-07T06:36:34.185Z,86.65
2024-02-07T06:39:02.297Z,84.70
2024-02-07T06:41:31.761Z,85.45
2024-02-07T06:44:00.261Z,85.11
2024-02-07T06:46:30.683Z,84.71
2024-02-07T06:48:58.903Z,82.31
2024-02-07T06:51:27.141Z,83.38
2024-02-07T06:53:55.180Z,82.52
2024-02-07T06:56:23.276Z,83.77
2024-02-07T06:58:52.749Z,85.34
2024-02-07T07:01:20.908Z,87.04
2024-02-07T07:03:51.619Z,84.96
2024-02-07T07:06:19.823Z,83.87
2024-02-07T07:08:47.886Z,84.59
2024-02-07T07:11:15.964Z,84.46
2024-02-07T07:13:44.073Z,84.18
2024-02-07T07:16:13.615Z,85.11
2024-02-07T07:18:41.729Z,84.54
2024-02-07T07:21:09.798Z,85.62
2024-02-07T07:23:37.877Z,83.49
2024-02-07T07:26:06.036Z,84.49
2024-02-07T07:28:34.214Z,84.49
2024-02-07T07:31:02.440Z,86.67
2024-02-07T07:33:31.840Z,86.47
2024-02-07T07:35:59.933Z,85.67
2024-02-07T07:38:27.998Z,86.43
2024-02-07T07:40:56.036Z,87.00
2024-02-07T07:43:24.135Z,87.34
2024-02-07T07:45:52.223Z,85.00
2024-02-07T07:48:24.086Z,84.67
2024-02-07T07:50:55.172Z,83.66
2024-02-07T07:53:23.298Z,85.78
2024-02-07T07:55:51.412Z,84.87
2024-02-07T07:58:19.579Z,85.52
2024-02-07T08:00:51.837Z,84.17
2024-02-07T08:03:20.330Z,83.31
2024-02-07T08:05:48.882Z,84.46
2024-02-07T08:08:18.625Z,83.06
2024-02-07T08:10:48.041Z,84.46
2024-02-07T08:13:16.301Z,85.75
2024-02-07T08:15:45.263Z,84.22
2024-02-07T08:18:13.485Z,85.35
2024-02-07T08:20:41.611Z,84.33
2024-02-07T08:23:09.670Z,84.38
2024-02-07T08:25:39.356Z,84.95
2024-02-07T08:28:07.874Z,83.98
2024-02-07T08:30:35.909Z,84.58
2024-02-07T08:33:04.085Z,84.11
2024-02-07T08:35:32.412Z,83.26
2024-02-07T08:38:01.171Z,82.54
2024-02-07T08:40:29.598Z,84.81
2024-02-07T08:43:00.122Z,83.47
2024-02-07T08:45:28.164Z,83.01
2024-02-07T08:47:56.380Z,82.49
2024-02-07T08:50:24.458Z,83.11
2024-02-07T08:52:52.498Z,82.56
2024-02-07T08:55:20.583Z,83.64
2024-02-07T08:57:48.642Z,84.13
2024-02-07T09:00:19.149Z,82.78
2024-02-07T09:02:51.195Z,82.36
2024-02-07T09:05:21.122Z,82.40
2024-02-07T09:07:50.107Z,83.94
2024-02-07T09:10:18.501Z,84.19
2024-02-07T09:12:46.568Z,82.45
2024-02-07T09:15:14.700Z,82.88
2024-02-07T09:17:44.196Z,83.07
2024-02-07T09:20:14.291Z,81.89
2024-02-07T09:22:43.253Z,82.78
2024-02-07T09:25:11.433Z,83.16
2024-02-07T09:27:41.935Z,83.89
2024-02-07T09:30:13.269Z,83.56
2024-02-07T09:32:44.971Z,83.63
2024-02-07T09:35:13.620Z,83.17
2024-02-07T09:37:42.920Z,81.06
2024-02-07T09:40:12.534Z,83.18
2024-02-07T09:42:43.357Z,84.22
2024-02-07T09:45:14.170Z,81.33
2024-02-07T09:47:50.419Z,83.50
2024-02-07T09:50:19.613Z,82.94
2024-02-07T09:52:48.924Z,83.24
2024-02-07T09:55:17.557Z,82.49
2024-02-07T09:57:45.644Z,84.00
2024-02-07T10:00:14.658Z,82.38
2024-02-07T10:02:48.420Z,79.59
2024-02-07T10:05:20.116Z,81.92
2024-02-07T10:07:52.725Z,81.60
2024-02-07T10:10:21.588Z,81.14
2024-02-07T10:12:49.937Z,83.32
2024-02-07T10:15:18.285Z,82.78
2024-02-07T10:17:47.911Z,83.94
2024-02-07T10:20:17.055Z,83.07
2024-02-07T10:22:45.629Z,82.27
2024-02-07T10:25:15.609Z,83.80
2024-02-07T10:27:44.169Z,83.48
2024-02-07T10:30:14.988Z,82.56
2024-02-07T10:32:46.615Z,82.33
2024-02-07T10:35:19.695Z,81.26
2024-02-07T10:37:48.060Z,81.19
2024-02-07T10:40:16.334Z,81.51
2024-02-07T10:42:44.398Z,80.82
2024-02-07T10:45:14.879Z,80.55
2024-02-07T10:47:45.276Z,79.95
2024-02-07T10:50:13.584Z,82.30
2024-02-07T10:52:43.677Z,82.11
2024-02-07T10:55:13.696Z,82.60
2024-02-07T10:57:46.618Z,80.10
2024-02-07T11:00:16.253Z,81.56
2024-02-07T11:02:47.222Z,81.50
2024-02-07T11:05:15.977Z,79.67
2024-02-07T11:07:45.742Z,76.69
2024-02-07T11:10:17.483Z,77.97
2024-02-07T11:12:46.171Z,79.96
2024-02-07T11:15:14.209Z,78.77
2024-02-07T11:17:42.371Z,73.76
2024-02-07T11:20:12.735Z,77.18
2024-02-07T11:22:43.825Z,80.32
2024-02-07T11:25:17.140Z,75.85
2024-02-07T11:27:45.341Z,79.99
2024-02-07T11:30:14.156Z,74.24
2024-02-07T11:32:42.275Z,75.49
2024-02-07T11:35:11.706Z,77.80
2024-02-07T11:37:40.677Z,78.92
2024-02-07T11:40:11.526Z,76.81
2024-02-07T11:42:42.123Z,78.40
2024-02-07T11:45:13.968Z,79.00
2024-02-07T11:47:44.323Z,76.39
2024-02-07T11:50:16.111Z,78.96
2024-02-07T11:52:44.925Z,77.89
2024-02-07T11:55:15.738Z,77.79
2024-02-07T11:57:46.361Z,78.71
2024-02-07T12:00:16.912Z,76.69
2024-02-07T12:02:48.136Z,78.14
2024-02-07T12:05:17.165Z,76.29
2024-02-07T12:07:46.100Z,79.61
2024-02-07T12:10:14.184Z,79.74
2024-02-07T12:12:42.254Z,79.21
2024-02-07T12:15:12.172Z,77.90
2024-02-07T12:17:40.340Z,79.52
2024-02-07T12:20:09.486Z,79.30
2024-02-07T12:22:37.857Z,79.26
2024-02-07T12:25:07.229Z,80.06
2024-02-07T12:27:35.730Z,79.03
2024-02-07T12:30:03.826Z,82.24
2024-02-07T12:32:35.920Z,82.99
2024-02-07T12:35:07.511Z,80.52
2024-02-07T12:37:36.193Z,80.54
2024-02-07T12:40:04.904Z,82.09
2024-02-07T12:42:32.980Z,82.68
2024-02-07T12:45:02.340Z,81.69
2024-02-07T12:47:30.442Z,82.47
2024-02-07T12:49:59.932Z,79.20
2024-02-07T12:52:28.143Z,83.08
2024-02-07T12:54:56.262Z,81.86
2024-02-07T12:57:25.144Z,82.67
2024-02-07T12:59:53.532Z,79.47
2024-02-07T13:02:21.928Z,79.93
2024-02-07T13:04:50.156Z,81.46
2024-02-07T13:07:21.090Z,81.73
2024-02-07T13:09:49.726Z,82.51
2024-02-07T13:12:23.862Z,79.98
2024-02-07T13:14:59.894Z,79.35
2024-02-07T13:17:28.099Z,79.13
2024-02-07T13:19:56.300Z,77.11
2024-02-07T13:22:25.927Z,79.08
2024-02-07T13:24:54.069Z,77.51
2024-02-07T13:27:22.104Z,80.06
2024-02-07T13:29:50.146Z,79.16
2024-02-07T13:32:23.179Z,74.24
2024-02-07T13:34:51.760Z,76.79
2024-02-07T13:37:19.955Z,79.71
2024-02-07T13:39:49.379Z,79.70
2024-02-07T13:42:20.098Z,74.29
2024-02-07T13:44:50.115Z,78.53
2024-02-07T13:47:19.574Z,76.75
2024-02-07T13:49:48.557Z,75.32
2024-02-07T13:52:16.893Z,80.22
2024-02-07T13:54:45.138Z,78.62
2024-02-07T13:57:14.567Z,78.05
2024-02-07T13:59:42.591Z,78.71
2024-02-07T14:02:11.551Z,74.15
2024-02-07T14:04:39.665Z,77.16
2024-02-07T14:07:07.761Z,80.51
2024-02-07T14:09:35.873Z,76.98
2024-02-07T14:12:03.886Z,77.68
2024-02-07T14:14:33.921Z,78.18
2024-02-07T14:17:02.021Z,79.08
2024-02-07T14:19:30.212Z,81.43
2024-02-07T14:22:00.588Z,81.69
2024-02-07T14:24:31.481Z,77.27
2024-02-07T14:26:59.506Z,82.30
2024-02-07T14:29:27.646Z,77.65
2024-02-07T14:31:57.994Z,80.27
2024-02-07T14:34:26.283Z,80.12
2024-02-07T14:36:54.349Z,82.20
2024-02-07T14:39:24.334Z,83.61
2024-02-07T14:41:52.426Z,84.28
2024-02-07T14:44:22.361Z,83.21
2024-02-07T14:46:50.804Z,82.31
2024-02-07T14:49:22.006Z,79.46
2024-02-07T14:51:50.172Z,80.51
2024-02-07T14:54:18.403Z,82.91
2024-02-07T14:56:46.532Z,82.25
2024-02-07T14:59:18.139Z,80.23
2024-02-07T15:01:46.914Z,80.44
2024-02-07T15:04:15.035Z,81.61
2024-02-07T15:06:44.699Z,79.68
2024-02-07T15:09:12.691Z,82.45
2024-02-07T15:11:40.644Z,80.94
2024-02-07T15:14:08.734Z,83.66
2024-02-07T15:16:38.177Z,84.04
2024-02-07T15:19:06.292Z,83.62
2024-02-07T15:21:34.292Z,79.56
2024-02-07T15:24:03.631Z,82.97
2024-02-07T15:26:31.539Z,83.34
2024-02-07T15:28:59.477Z,84.46
2024-02-07T15:31:27.475Z,84.34
2024-02-07T15:33:55.479Z,85.08
2024-02-07T15:36:23.565Z,85.48
2024-02-07T15:38:51.623Z,86.22
2024-02-07T15:41:20.949Z,86.24
2024-02-07T15:43:49.123Z,86.41
2024-02-07T15:46:18.049Z,86.58
2024-02-07T15:48:54.926Z,86.91
2024-02-07T15:51:30.512Z,86.79
2024-02-07T15:53:58.437Z,87.31
2024-02-07T15:56:27.835Z,87.35
2024-02-07T15:58:55.869Z,87.10
2024-02-07T16:01:33.685Z,87.69
2024-02-07T16:04:09.741Z,87.74
2024-02-07T16:06:37.772Z,87.47
2024-02-07T16:09:05.823Z,87.73
2024-02-07T16:11:35.121Z,87.92
2024-02-07T16:14:03.116Z,87.70
2024-02-07T16:16:32.277Z,87.94
2024-02-07T16:19:00.353Z,87.56
2024-02-07T16:21:28.407Z,87.79
2024-02-07T16:23:56.309Z,88.03
2024-02-07T16:26:24.252Z,87.74
2024-02-07T16:28:53.993Z,87.89
2024-02-07T16:31:22.287Z,88.33
2024-02-07T16:33:50.312Z,87.97
2024-02-07T16:36:18.338Z,88.28
2024-02-07T16:38:46.727Z,88.42
2024-02-07T16:41:14.689Z,88.26
2024-02-07T16:43:42.679Z,88.15
2024-02-07T16:46:12.075Z,88.16
2024-02-07T16:48:40.237Z,88.26
2024-02-07T16:51:08.512Z,88.66
2024-02-07T16:53:36.833Z,88.48
2024-02-07T16:56:05.304Z,89.00
2024-02-07T16:58:33.398Z,88.96
2024-02-07T17:01:01.493Z,89.22
2024-02-07T17:03:30.887Z,88.97
2024-02-07T17:05:58.932Z,89.21
2024-02-07T17:08:30.654Z,88.91
2024-02-07T17:10:58.858Z,88.81
2024-02-07T17:13:27.024Z,89.10
2024-02-07T17:15:55.077Z,89.01
2024-02-07T17:18:23.250Z,89.05
2024-02-07T17:20:52.783Z,89.11
2024-02-07T17:23:20.800Z,89.18
2024-02-07T17:25:49.175Z,89.13
2024-02-07T17:28:17.313Z,89.17
2024-02-07T17:30:45.478Z,89.63
2024-02-07T17:33:13.637Z,89.46
2024-02-07T17:35:42.076Z,89.84
2024-02-07T17:38:11.605Z,89.76
2024-02-07T17:40:39.705Z,89.46
2024-02-07T17:43:08.585Z,89.87
2024-02-07T17:45:37.209Z,89.38
2024-02-07T17:48:05.965Z,89.99
2024-02-07T17:50:35.658Z,89.79
2024-02-07T17:53:05.188Z,89.79
2024-02-07T17:55:34.958Z,89.57
2024-02-07T17:58:03.026Z,89.85
2024-02-07T18:00:31.055Z,89.67
2024-02-07T18:02:59.094Z,89.89
2024-02-07T18:05:28.154Z,89.94
2024-02-07T18:07:57.924Z,89.66
2024-02-07T18:10:26.222Z,90.09
2024-02-07T18:12:56.817Z,90.02
2024-02-07T18:15:24.907Z,89.75
2024-02-07T18:17:53.011Z,89.87
2024-02-07T18:20:21.406Z,89.61
2024-02-07T18:22:49.609Z,89.93
2024-02-07T18:25:17.779Z,89.72
2024-02-07T18:27:45.816Z,90.05
2024-02-07T18:30:15.767Z,89.98
2024-02-07T18:32:43.932Z,90.04
2024-02-07T18:35:12.075Z,89.73
2024-02-07T18:37:40.284Z,89.64
2024-02-07T18:40:09.428Z,89.86
2024-02-07T18:42:40.108Z,89.66
2024-02-07T18:45:09.025Z,89.98
2024-02-07T18:47:38.529Z,90.10
2024-02-07T18:50:07.541Z,89.68
2024-02-07T18:52:39.283Z,89.75
2024-02-07T18:55:08.218Z,89.73
2024-02-07T18:57:39.324Z,89.71
2024-02-07T19:00:09.585Z,89.80
2024-02-07T19:02:39.384Z,90.09
2024-02-07T19:05:07.903Z,89.96
2024-02-07T19:07:36.446Z,89.76
2024-02-07T19:10:04.980Z,90.01
2024-02-07T19:12:32.993Z,90.03
2024-02-07T19:15:01.026Z,90.44
2024-02-07T19:17:29.167Z,90.38
2024-02-07T19:19:58.722Z,90.52
2024-02-07T19:22:26.778Z,90.65
2024-02-07T19:24:55.127Z,90.68
2024-02-07T19:27:23.170Z,90.63
2024-02-07T19:29:51.281Z,90.43
2024-02-07T19:32:20.380Z,90.46
2024-02-07T19:34:49.808Z,90.16
2024-02-07T19:37:19.483Z,90.03
2024-02-07T19:39:47.606Z,89.90
2024-02-07T19:42:15.677Z,90.39
2024-02-07T19:44:43.747Z,90.09
2024-02-07T19:47:11.830Z,90.40
2024-02-07T19:49:40.116Z,90.70
2024-02-07T19:52:10.011Z,90.80
2024-02-07T19:54:39.458Z,90.42
2024-02-07T19:57:07.543Z,90.83
2024-02-07T19:59:35.574Z,90.76
2024-02-07T20:02:03.627Z,90.41
2024-02-07T20:04:31.728Z,91.04
2024-02-07T20:06:59.788Z,90.97
2024-02-07T20:09:27.861Z,91.04
2024-02-07T20:11:57.326Z,90.65
2024-02-07T20:14:26.344Z,90.54
2024-02-07T20:16:54.840Z,90.80
2024-02-07T20:19:22.992Z,90.57
2024-02-07T20:21:51.378Z,90.63
2024-02-07T20:24:19.489Z,90.94
2024-02-07T20:26:47.487Z,90.83
2024-02-07T20:29:16.939Z,90.91
2024-02-07T20:31:46.034Z,90.46
2024-02-07T20:34:14.164Z,90.69
2024-02-07T20:36:44.078Z,90.81
2024-02-07T20:39:13.781Z,90.89
2024-02-07T20:41:42.508Z,90.91
2024-02-07T20:44:13.466Z,90.85
2024-02-07T20:46:43.036Z,90.87
2024-02-07T20:49:11.150Z,90.96
2024-02-07T20:51:39.179Z,90.98
2024-02-07T20:54:07.343Z,90.69
2024-02-07T20:56:36.383Z,90.88
2024-02-07T20:59:04.426Z,90.69
2024-02-07T21:01:32.587Z,90.72
2024-02-07T21:04:02.128Z,91.29
2024-02-07T21:06:30.746Z,91.31
2024-02-07T21:08:58.917Z,91.11
2024-02-07T21:11:26.985Z,91.36
2024-02-07T21:13:55.125Z,91.13
2024-02-07T21:16:23.301Z,91.13
2024-02-07T21:18:51.737Z,90.92
2024-02-07T21:21:21.224Z,90.93
2024-02-07T21:23:49.307Z,90.85
2024-02-07T21:26:17.454Z,91.17
2024-02-07T21:28:45.532Z,90.71
2024-02-07T21:31:14.314Z,90.87
2024-02-07T21:33:42.557Z,90.94
2024-02-07T21:36:10.785Z,90.88
2024-02-07T21:38:40.342Z,90.80
2024-02-07T21:41:08.517Z,91.02
2024-02-07T21:43:36.660Z,90.64
2024-02-07T21:46:06.857Z,90.96
2024-02-07T21:48:34.943Z,91.10
2024-02-07T21:51:03.014Z,90.69
2024-02-07T21:53:31.016Z,90.50
2024-02-07T21:56:00.570Z,90.51
2024-02-07T21:58:28.684Z,90.33
2024-02-07T22:00:56.769Z,90.49
2024-02-07T22:03:24.816Z,90.99
2024-02-07T22:05:52.892Z,90.85
2024-02-07T22:08:21.106Z,90.41
2024-02-07T22:10:49.199Z,90.78
2024-02-07T22:13:18.624Z,90.75
2024-02-07T22:15:46.670Z,91.08
2024-02-07T22:18:14.841Z,91.04
2024-02-07T22:20:42.920Z,90.73
2024-02-07T22:23:11.050Z,91.00
2024-02-07T22:25:39.220Z,90.61
2024-02-07T22:28:07.625Z,90.54
2024-02-07T22:30:37.080Z,90.75
2024-02-07T22:33:05.511Z,90.73
2024-02-07T22:35:33.561Z,90.90
2024-02-07T22:38:03.448Z,91.26
2024-02-07T22:40:31.610Z,91.03
2024-02-07T22:43:00.046Z,90.64
2024-02-07T22:45:28.833Z,91.16
2024-02-07T22:47:58.459Z,91.10
2024-02-07T22:50:26.845Z,90.86
2024-02-07T22:52:54.946Z,91.33
2024-02-07T22:55:23.084Z,90.95
2024-02-07T22:57:51.267Z,90.99
2024-02-07T23:00:21.398Z,91.07
2024-02-07T23:02:49.687Z,91.09
2024-02-07T23:05:19.192Z,90.65
2024-02-07T23:07:47.380Z,90.88
2024-02-07T23:10:15.412Z,90.65
2024-02-07T23:12:46.126Z,91.34
2024-02-07T23:15:14.455Z,91.49
2024-02-07T23:17:42.575Z,91.17
2024-02-07T23:20:11.213Z,91.75
2024-02-07T23:22:40.763Z,91.48
2024-02-07T23:25:09.879Z,91.51
2024-02-07T23:27:37.938Z,91.56
2024-02-07T23:30:06.649Z,91.28
2024-02-07T23:32:34.754Z,91.35
2024-02-07T23:35:02.971Z,92.05
2024-02-07T23:37:31.089Z,91.85
2024-02-07T23:40:00.571Z,91.99
2024-02-07T23:42:28.956Z,91.46
2024-02-07T23:44:56.968Z,91.62
2024-02-07T23:47:25.376Z,91.89
2024-02-07T23:49:53.536Z,91.42
2024-02-07T23:52:21.596Z,91.46
2024-02-07T23:54:50.405Z,91.43
2024-02-07T23:57:19.882Z,91.99
2024-02-07T23:59:47.967Z,91.27
